createdAt,value
2022-08-24T00:00:55.199Z,2.47
2022-08-24T00:03:22.240Z,3.30
2022-08-24T00:05:48.830Z,3.00
2022-08-24T00:08:15.396Z,2.80
2022-08-24T00:10:42.011Z,2.77
2022-08-24T00:13:09.174Z,3.23
2022-08-24T00:15:35.652Z,2.80
2022-08-24T00:18:02.423Z,3.17
2022-08-24T00:20:29.264Z,3.10
2022-08-24T00:22:55.746Z,2.90
2022-08-24T00:25:22.246Z,3.27
2022-08-24T00:27:48.759Z,3.10
2022-08-24T00:30:19.023Z,2.90
2022-08-24T00:32:47.997Z,3.10
2022-08-24T00:35:18.232Z,3.27
2022-08-24T00:37:45.926Z,2.97
2022-08-24T00:40:17.363Z,2.93
2022-08-24T00:42:43.805Z,3.13
2022-08-24T00:45:13.257Z,3.03
2022-08-24T00:47:47.647Z,2.90
2022-08-24T00:50:22.302Z,3.20
2022-08-24T00:52:53.352Z,3.23
2022-08-24T00:55:28.715Z,3.40
2022-08-24T00:58:01.609Z,2.63
2022-08-24T01:00:32.253Z,2.70
2022-08-24T01:03:04.496Z,3.10
2022-08-24T01:05:32.407Z,2.80
2022-08-24T01:08:00.708Z,3.00
2022-08-24T01:10:29.799Z,3.30
2022-08-24T01:13:01.395Z,3.07
2022-08-24T01:15:31.093Z,2.97
2022-08-24T01:18:17.123Z,2.83
2022-08-24T01:20:49.423Z,3.17
2022-08-24T01:23:36.678Z,3.20
2022-08-24T01:28:40.662Z,2.90
2022-08-24T01:31:08.036Z,3.33
2022-08-24T01:33:34.683Z,3.60
2022-08-24T01:36:05.735Z,3.00
2022-08-24T01:38:33.377Z,3.00
2022-08-24T01:41:02.133Z,3.30
2022-08-24T01:43:28.727Z,2.97
2022-08-24T01:45:57.139Z,2.43
2022-08-24T01:48:23.615Z,2.90
2022-08-24T01:50:50.253Z,3.33
2022-08-24T01:53:16.968Z,3.63
2022-08-24T01:55:43.803Z,3.33
2022-08-24T01:58:10.276Z,2.73
2022-08-24T02:00:37.640Z,2.87
2022-08-24T02:03:04.951Z,3.10
2022-08-24T02:05:31.548Z,2.90
2022-08-24T02:07:58.244Z,2.83
2022-08-24T02:10:27.355Z,3.10
2022-08-24T02:13:00.151Z,3.07
2022-08-24T02:15:29.381Z,3.10
2022-08-24T02:17:56.048Z,3.03
2022-08-24T02:20:23.332Z,3.20
2022-08-24T02:22:51.564Z,3.00
2022-08-24T02:25:18.529Z,3.30
2022-08-24T02:27:45.278Z,2.97
2022-08-24T02:30:12.123Z,3.20
2022-08-24T02:32:42.121Z,3.13
2022-08-24T02:35:09.704Z,2.97
2022-08-24T02:37:36.496Z,2.40
2022-08-24T02:40:11.089Z,3.43
2022-08-24T02:42:38.020Z,3.70
2022-08-24T02:45:05.314Z,3.83
2022-08-24T02:47:38.206Z,3.33
2022-08-24T02:50:08.124Z,2.87
2022-08-24T02:52:36.186Z,3.20
2022-08-24T02:55:02.961Z,2.90
2022-08-24T02:57:29.533Z,3.00
2022-08-24T02:59:55.952Z,3.67
2022-08-24T03:02:22.472Z,4.60
2022-08-24T03:04:49.331Z,3.50
2022-08-24T03:07:16.080Z,3.87
2022-08-24T03:09:42.507Z,3.40
2022-08-24T03:12:09.039Z,3.27
2022-08-24T03:14:35.908Z,3.27
2022-08-24T03:17:02.870Z,3.00
2022-08-24T03:19:29.951Z,2.90
2022-08-24T03:21:57.273Z,3.03
2022-08-24T03:24:24.000Z,3.40
2022-08-24T03:26:50.456Z,3.40
2022-08-24T03:29:17.136Z,3.63
2022-08-24T03:31:43.708Z,3.67
2022-08-24T03:34:13.731Z,3.60
2022-08-24T03:36:41.476Z,4.13
2022-08-24T03:39:07.911Z,4.23
2022-08-24T03:41:36.654Z,3.20
2022-08-24T03:44:04.077Z,3.57
2022-08-24T03:46:36.758Z,3.80
2022-08-24T03:49:06.337Z,4.10
2022-08-24T03:51:32.767Z,4.30
2022-08-24T03:54:02.605Z,3.63
2022-08-24T03:56:29.449Z,3.90
2022-08-24T03:58:56.240Z,3.90
2022-08-24T04:01:23.086Z,3.53
2022-08-24T04:03:50.321Z,4.10
2022-08-24T04:06:22.907Z,3.73
2022-08-24T04:08:50.166Z,3.90
2022-08-24T04:11:23.100Z,3.87
2022-08-24T04:13:52.704Z,4.47
2022-08-24T04:16:21.183Z,4.23
2022-08-24T04:18:48.608Z,3.93
2022-08-24T04:21:25.099Z,3.63
2022-08-24T04:23:52.488Z,4.00
2022-08-24T04:26:28.678Z,3.43
2022-08-24T04:29:09.482Z,4.77
2022-08-24T04:31:37.724Z,4.07
2022-08-24T04:34:05.423Z,3.57
2022-08-24T04:36:32.708Z,4.20
2022-08-24T04:39:00.873Z,4.53
2022-08-24T04:41:31.531Z,4.83
2022-08-24T04:43:59.479Z,4.37
2022-08-24T04:46:26.617Z,4.07
2022-08-24T04:48:53.053Z,4.03
2022-08-24T04:51:21.053Z,4.27
2022-08-24T04:53:49.108Z,4.27
2022-08-24T04:56:25.204Z,3.87
2022-08-24T04:58:53.593Z,4.43
2022-08-24T05:01:22.901Z,3.93
2022-08-24T05:03:52.243Z,4.07
2022-08-24T05:06:20.540Z,4.63
2022-08-24T05:08:47.586Z,3.83
2022-08-24T05:11:17.348Z,4.20
2022-08-24T05:13:43.876Z,3.93
2022-08-24T05:16:13.781Z,5.30
2022-08-24T05:18:41.199Z,4.60
2022-08-24T05:21:09.163Z,4.57
2022-08-24T05:23:37.328Z,4.20
2022-08-24T05:26:16.703Z,5.07
2022-08-24T05:28:43.630Z,5.27
2022-08-24T05:31:20.545Z,4.63
2022-08-24T05:33:48.231Z,4.03
2022-08-24T05:36:21.748Z,4.57
2022-08-24T05:38:49.631Z,4.97
2022-08-24T05:41:17.523Z,4.50
2022-08-24T05:43:44.664Z,4.47
2022-08-24T05:46:11.713Z,5.10
2022-08-24T05:48:38.196Z,4.63
2022-08-24T05:51:06.296Z,4.90
2022-08-24T05:53:33.497Z,4.87
2022-08-24T05:56:05.345Z,4.43
2022-08-24T05:58:31.862Z,5.37
2022-08-24T06:00:59.880Z,4.43
2022-08-24T06:03:26.945Z,4.70
2022-08-24T06:05:54.957Z,4.50
2022-08-24T06:08:21.507Z,4.97
2022-08-24T06:10:48.056Z,4.90
2022-08-24T06:13:14.755Z,4.47
2022-08-24T06:15:42.719Z,4.57
2022-08-24T06:18:14.458Z,4.23
2022-08-24T06:20:42.940Z,4.67
2022-08-24T06:23:12.596Z,5.03
2022-08-24T06:25:58.612Z,4.67
2022-08-24T06:28:25.795Z,4.67
2022-08-24T06:31:02.233Z,4.87
2022-08-24T06:33:28.761Z,4.73
2022-08-24T06:35:55.259Z,4.40
2022-08-24T06:38:22.913Z,4.93
2022-08-24T06:40:49.631Z,4.83
2022-08-24T06:43:16.170Z,5.27
2022-08-24T06:45:43.891Z,4.90
2022-08-24T06:48:11.539Z,5.33
2022-08-24T06:50:39.774Z,5.20
2022-08-24T06:53:06.343Z,4.13
2022-08-24T06:55:32.849Z,4.70
2022-08-24T06:57:59.522Z,4.27
2022-08-24T07:00:25.987Z,4.70
2022-08-24T07:02:52.547Z,4.20
2022-08-24T07:05:19.231Z,4.30
2022-08-24T07:07:45.703Z,4.40
2022-08-24T07:10:12.312Z,4.17
2022-08-24T07:12:38.746Z,4.00
2022-08-24T07:15:05.789Z,4.27
2022-08-24T07:17:42.706Z,4.53
2022-08-24T07:20:09.920Z,3.60
2022-08-24T07:22:36.325Z,4.00
2022-08-24T07:25:02.986Z,3.87
2022-08-24T07:27:29.557Z,4.60
2022-08-24T07:30:16.128Z,3.67
2022-08-24T07:32:42.436Z,4.23
2022-08-24T07:35:09.147Z,3.63
2022-08-24T07:37:41.269Z,4.07
2022-08-24T07:40:09.308Z,4.20
2022-08-24T07:42:35.897Z,4.07
2022-08-24T07:45:03.277Z,4.37
2022-08-24T07:47:54.570Z,3.47
2022-08-24T07:50:18.257Z,3.57
2022-08-24T07:52:45.570Z,3.90
2022-08-24T07:55:13.282Z,4.30
2022-08-24T07:57:41.020Z,3.40
2022-08-24T08:00:11.661Z,3.43
2022-08-24T08:02:40.645Z,3.90
2022-08-24T08:05:07.554Z,3.67
2022-08-24T08:07:34.054Z,4.80
2022-08-24T08:10:02.118Z,4.30
2022-08-24T08:12:28.535Z,4.00
2022-08-24T08:14:55.003Z,3.90
2022-08-24T08:17:21.454Z,4.00
2022-08-24T08:19:47.859Z,4.20
2022-08-24T08:22:33.206Z,4.33
2022-08-24T08:24:59.633Z,3.47
2022-08-24T08:27:26.433Z,3.63
2022-08-24T08:29:52.886Z,4.57
2022-08-24T08:32:20.120Z,3.63
2022-08-24T08:34:47.589Z,3.93
2022-08-24T08:37:14.887Z,3.77
2022-08-24T08:39:41.754Z,3.50
2022-08-24T08:42:38.174Z,3.93
2022-08-24T08:45:17.324Z,3.00
2022-08-24T08:50:44.782Z,3.50
2022-08-24T08:53:58.418Z,3.43
2022-08-24T08:56:56.073Z,3.93
2022-08-24T08:59:40.859Z,3.40
2022-08-24T09:02:17.437Z,3.43
2022-08-24T09:05:29.030Z,4.17
2022-08-24T09:08:10.446Z,4.20
2022-08-24T09:11:20.583Z,3.70
2022-08-24T09:14:05.338Z,4.20
2022-08-24T09:16:40.817Z,3.57
2022-08-24T09:19:19.479Z,3.57
2022-08-24T09:21:58.151Z,3.60
2022-08-24T09:24:33.369Z,4.20
2022-08-24T09:27:16.788Z,3.70
2022-08-24T09:29:54.111Z,4.53
2022-08-24T09:32:35.772Z,3.50
2022-08-24T09:35:11.110Z,3.70
2022-08-24T09:38:00.108Z,4.53
2022-08-24T09:40:36.484Z,4.40
2022-08-24T09:43:24.273Z,4.70
2022-08-24T09:46:00.134Z,3.73
2022-08-24T09:48:44.805Z,4.20
2022-08-24T09:51:44.406Z,4.47
2022-08-24T09:54:55.521Z,5.50
2022-08-24T10:00:46.696Z,4.03
2022-08-24T10:03:48.806Z,4.00
2022-08-24T10:06:33.786Z,4.47
2022-08-24T10:09:40.063Z,5.03
2022-08-24T10:12:22.776Z,3.80
2022-08-24T10:15:10.916Z,4.23
2022-08-24T10:18:08.834Z,3.87
2022-08-24T10:20:57.329Z,3.10
2022-08-24T10:23:55.100Z,4.07
2022-08-24T10:26:39.907Z,3.77
2022-08-24T10:29:22.307Z,4.90
2022-08-24T10:32:09.608Z,4.30
2022-08-24T10:34:54.475Z,3.27
2022-08-24T10:37:45.486Z,3.57
2022-08-24T10:40:37.254Z,3.40
2022-08-24T10:43:33.988Z,3.50
2022-08-24T10:46:18.709Z,4.13
2022-08-24T10:49:10.889Z,3.17
2022-08-24T10:52:04.437Z,3.50
2022-08-24T10:54:35.818Z,3.13
2022-08-24T10:57:11.621Z,3.90
2022-08-24T11:00:03.475Z,3.63
2022-08-24T11:02:36.627Z,3.77
2022-08-24T11:05:09.304Z,3.10
2022-08-24T11:07:36.893Z,3.93
2022-08-24T11:10:09.957Z,4.30
2022-08-24T11:12:42.737Z,3.17
2022-08-24T11:15:18.353Z,3.37
2022-08-24T11:17:58.398Z,3.30
2022-08-24T11:20:29.017Z,3.73
2022-08-24T11:23:07.915Z,3.40
2022-08-24T11:25:37.857Z,3.00
2022-08-24T11:28:25.309Z,3.37
2022-08-24T11:30:51.718Z,3.27
2022-08-24T11:33:34.021Z,3.33
2022-08-24T11:36:02.439Z,3.17
2022-08-24T11:38:34.362Z,4.17
2022-08-24T11:41:13.472Z,3.20
2022-08-24T11:44:02.004Z,4.17
2022-08-24T11:46:56.877Z,3.57
2022-08-24T11:49:35.429Z,3.40
2022-08-24T11:52:32.733Z,3.87
2022-08-24T11:55:17.799Z,4.70
2022-08-24T11:57:57.822Z,4.30
2022-08-24T12:00:30.265Z,3.47
2022-08-24T12:03:26.851Z,3.60
2022-08-24T12:06:00.932Z,2.93
2022-08-24T12:08:39.145Z,4.30
2022-08-24T12:11:33.085Z,3.53
2022-08-24T12:14:15.552Z,4.40
2022-08-24T12:17:20.389Z,3.60
2022-08-24T12:19:54.849Z,3.13
2022-08-24T12:22:22.452Z,3.63
2022-08-24T12:24:58.620Z,3.43
2022-08-24T12:27:37.569Z,3.80
2022-08-24T12:30:12.407Z,3.80
2022-08-24T12:32:46.999Z,4.50
2022-08-24T12:35:24.374Z,3.17
2022-08-24T12:37:58.597Z,3.10
2022-08-24T12:40:40.512Z,3.30
2022-08-24T12:43:14.106Z,3.40
2022-08-24T12:45:40.723Z,3.80
2022-08-24T12:48:26.331Z,3.67
2022-08-24T12:50:52.664Z,3.27
2022-08-24T12:53:46.617Z,3.37
2022-08-24T12:56:41.438Z,2.77
2022-08-24T12:59:07.887Z,2.87
2022-08-24T13:01:39.643Z,3.40
2022-08-24T13:04:29.669Z,2.80
2022-08-24T13:07:05.895Z,3.20
2022-08-24T13:09:46.168Z,3.20
2022-08-24T13:12:41.723Z,3.30
2022-08-24T13:15:26.437Z,3.03
2022-08-24T13:18:09.708Z,3.27
2022-08-24T13:20:36.568Z,3.97
2022-08-24T13:23:12.118Z,3.77
2022-08-24T13:25:47.502Z,2.70
2022-08-24T13:28:20.384Z,3.23
2022-08-24T13:31:02.615Z,3.27
2022-08-24T13:33:44.370Z,3.20
2022-08-24T13:36:29.109Z,3.30
2022-08-24T13:39:06.191Z,3.33
2022-08-24T13:41:47.373Z,3.60
2022-08-24T13:44:22.673Z,3.47
2022-08-24T13:47:12.361Z,3.37
2022-08-24T13:50:03.546Z,3.20
2022-08-24T13:52:39.288Z,2.67
2022-08-24T13:55:35.467Z,2.97
2022-08-24T13:58:23.542Z,3.47
2022-08-24T14:01:23.469Z,3.00
2022-08-24T14:03:55.134Z,3.00
2022-08-24T14:06:56.016Z,2.80
2022-08-24T14:09:38.484Z,2.90
2022-08-24T14:12:11.836Z,2.80
2022-08-24T14:14:38.245Z,2.90
2022-08-24T14:17:35.442Z,3.43
2022-08-24T14:20:08.377Z,2.87
2022-08-24T14:23:00.405Z,2.80
2022-08-24T14:25:33.253Z,3.70
2022-08-24T14:27:59.788Z,3.30
2022-08-24T14:30:26.293Z,2.77
2022-08-24T14:32:58.600Z,3.40
2022-08-24T14:35:34.360Z,2.90
2022-08-24T14:38:19.751Z,3.53
2022-08-24T14:40:58.065Z,3.10
2022-08-24T14:43:45.616Z,2.77
2022-08-24T14:46:24.585Z,3.60
2022-08-24T14:49:07.877Z,2.93
2022-08-24T14:52:19.246Z,2.90
2022-08-24T14:54:59.299Z,2.70
2022-08-24T14:58:04.452Z,2.80
2022-08-24T15:00:51.883Z,2.57
2022-08-24T15:03:32.704Z,2.60
2022-08-24T15:06:34.220Z,3.17
2022-08-24T15:09:28.768Z,3.00
2022-08-24T15:12:10.671Z,3.00
2022-08-24T15:14:46.626Z,2.40
2022-08-24T15:17:21.177Z,2.37
2022-08-24T15:20:09.401Z,3.10
2022-08-24T15:22:36.441Z,2.53
2022-08-24T15:25:12.618Z,3.10
2022-08-24T15:27:57.344Z,2.87
2022-08-24T15:30:28.205Z,2.53
2022-08-24T15:33:19.337Z,2.90
2022-08-24T15:35:49.206Z,2.60
2022-08-24T15:38:28.923Z,2.43
2022-08-24T15:41:18.721Z,2.70
2022-08-24T15:44:00.395Z,2.50
2022-08-24T15:46:33.001Z,2.43
2022-08-24T15:49:08.119Z,2.40
2022-08-24T15:51:43.619Z,2.63
2022-08-24T15:54:31.460Z,2.60
2022-08-24T15:57:18.101Z,2.27
2022-08-24T15:59:50.164Z,2.47
2022-08-24T16:02:29.145Z,2.20
2022-08-24T16:05:21.972Z,2.90
2022-08-24T16:08:04.153Z,2.00
2022-08-24T16:10:56.652Z,2.43
2022-08-24T16:13:29.070Z,2.57
2022-08-24T16:16:01.573Z,3.27
2022-08-24T16:18:53.605Z,2.30
2022-08-24T16:21:37.766Z,2.50
2022-08-24T16:24:37.744Z,2.23
2022-08-24T16:27:16.431Z,2.13
2022-08-24T16:29:51.108Z,2.27
2022-08-24T16:32:31.462Z,2.20
2022-08-24T16:35:14.413Z,2.13
2022-08-24T16:37:41.573Z,2.13
2022-08-24T16:40:09.451Z,2.30
2022-08-24T16:42:36.908Z,1.90
2022-08-24T16:45:09.499Z,2.33
2022-08-24T16:47:36.483Z,2.30
2022-08-24T16:50:04.498Z,2.17
2022-08-24T16:52:31.047Z,2.37
2022-08-24T16:54:57.629Z,2.50
2022-08-24T16:57:29.719Z,2.40
2022-08-24T16:59:56.645Z,2.50
2022-08-24T17:02:25.757Z,2.40
2022-08-24T17:04:54.444Z,2.23
2022-08-24T17:07:26.082Z,2.37
2022-08-24T17:09:54.355Z,2.20
2022-08-24T17:12:21.192Z,2.30
2022-08-24T17:14:48.037Z,2.30
2022-08-24T17:17:21.384Z,2.63
2022-08-24T17:19:50.955Z,2.77
2022-08-24T17:22:17.841Z,2.63
2022-08-24T17:24:45.526Z,2.67
2022-08-24T17:27:13.440Z,2.40
2022-08-24T17:29:41.441Z,2.10
2022-08-24T17:32:07.980Z,2.60
2022-08-24T17:34:34.746Z,2.83
2022-08-24T17:37:01.606Z,2.20
2022-08-24T17:39:28.695Z,2.37
2022-08-24T17:41:58.456Z,2.60
2022-08-24T17:44:27.508Z,2.60
2022-08-24T17:46:57.683Z,2.43
2022-08-24T17:49:25.948Z,2.57
2022-08-24T17:51:53.655Z,2.50
2022-08-24T17:54:20.072Z,2.80
2022-08-24T17:56:48.748Z,2.07
2022-08-24T17:59:20.003Z,2.70
2022-08-24T18:01:50.131Z,2.57
2022-08-24T18:04:17.893Z,2.63
2022-08-24T18:06:44.647Z,3.00
2022-08-24T18:09:22.256Z,2.63
2022-08-24T18:11:48.701Z,2.77
2022-08-24T18:14:15.101Z,3.10
2022-08-24T18:16:41.624Z,3.10
2022-08-24T18:19:09.294Z,2.87
2022-08-24T18:21:35.706Z,2.67
2022-08-24T18:24:02.105Z,2.53
2022-08-24T18:26:30.696Z,2.70
2022-08-24T18:29:01.968Z,2.70
2022-08-24T18:31:30.490Z,2.80
2022-08-24T18:33:57.023Z,3.10
2022-08-24T18:36:23.448Z,2.70
2022-08-24T18:38:49.981Z,2.43
2022-08-24T18:41:16.932Z,2.70
2022-08-24T18:43:43.431Z,2.30
2022-08-24T18:46:10.015Z,2.20
2022-08-24T18:48:36.480Z,2.57
2022-08-24T18:51:03.638Z,2.40
2022-08-24T18:53:30.204Z,2.20
2022-08-24T18:55:56.770Z,2.50
2022-08-24T18:58:23.248Z,2.23
2022-08-24T19:00:51.168Z,2.83
2022-08-24T19:03:23.148Z,2.90
2022-08-24T19:05:50.605Z,2.90
2022-08-24T19:08:17.066Z,2.30
2022-08-24T19:10:43.595Z,2.63
2022-08-24T19:13:15.741Z,2.40
2022-08-24T19:15:43.093Z,2.60
2022-08-24T19:18:11.236Z,2.50
2022-08-24T19:20:48.028Z,2.90
2022-08-24T19:23:37.214Z,2.63
2022-08-24T19:26:03.942Z,2.83
2022-08-24T19:28:31.241Z,2.60
2022-08-24T19:31:00.833Z,2.80
2022-08-24T19:33:33.917Z,2.23
2022-08-24T19:36:00.461Z,2.40
2022-08-24T19:38:26.971Z,2.57
2022-08-24T19:40:55.587Z,2.40
2022-08-24T19:43:25.788Z,2.30
2022-08-24T19:46:02.196Z,2.30
2022-08-24T19:48:34.347Z,2.23
2022-08-24T19:51:03.446Z,2.57
2022-08-24T19:53:32.859Z,2.70
2022-08-24T19:55:59.509Z,2.63
2022-08-24T19:58:39.080Z,2.50
2022-08-24T20:01:11.482Z,2.73
2022-08-24T20:03:38.047Z,2.47
2022-08-24T20:06:04.873Z,2.73
2022-08-24T20:08:31.344Z,2.60
2022-08-24T20:11:00.408Z,2.40
2022-08-24T20:13:27.471Z,3.17
2022-08-24T20:15:56.166Z,2.30
2022-08-24T20:18:31.324Z,2.57
2022-08-24T20:20:58.572Z,2.37
2022-08-24T20:23:25.487Z,2.37
2022-08-24T20:25:52.665Z,2.30
2022-08-24T20:28:29.472Z,2.40
2022-08-24T20:30:56.638Z,2.67
2022-08-24T20:33:27.863Z,2.27
2022-08-24T20:35:56.268Z,2.30
2022-08-24T20:38:23.558Z,2.63
2022-08-24T20:40:51.590Z,2.63
2022-08-24T20:43:19.054Z,3.03
2022-08-24T20:45:45.586Z,3.10
2022-08-24T20:48:13.905Z,2.80
2022-08-24T20:50:44.460Z,2.80
2022-08-24T20:53:11.854Z,2.30
2022-08-24T20:55:40.622Z,2.70
2022-08-24T20:58:07.886Z,3.03
2022-08-24T21:00:34.479Z,3.47
2022-08-24T21:03:01.070Z,2.90
2022-08-24T21:05:27.920Z,3.00
2022-08-24T21:07:57.164Z,2.80
2022-08-24T21:10:26.579Z,2.83
2022-08-24T21:12:53.849Z,2.83
2022-08-24T21:15:22.408Z,3.00
2022-08-24T21:17:49.331Z,2.77
2022-08-24T21:20:16.502Z,2.60
2022-08-24T21:22:45.936Z,2.63
2022-08-24T21:25:14.495Z,2.40
2022-08-24T21:27:44.010Z,2.50
2022-08-24T21:30:14.991Z,2.90
2022-08-24T21:33:00.527Z,2.67
2022-08-24T21:35:27.212Z,2.40
2022-08-24T21:37:53.693Z,2.60
2022-08-24T21:40:21.938Z,2.70
2022-08-24T21:42:49.075Z,2.57
2022-08-24T21:45:15.713Z,2.40
2022-08-24T21:47:42.152Z,2.83
2022-08-24T21:50:09.406Z,2.40
2022-08-24T21:52:35.839Z,2.40
2022-08-24T21:55:02.314Z,2.90
2022-08-24T21:57:28.911Z,2.23
2022-08-24T21:59:55.524Z,2.50
2022-08-24T22:02:21.951Z,2.53
2022-08-24T22:04:56.171Z,2.70
2022-08-24T22:07:24.623Z,2.70
2022-08-24T22:09:51.313Z,2.87
2022-08-24T22:12:18.492Z,3.00
2022-08-24T22:14:44.949Z,2.40
2022-08-24T22:17:11.610Z,3.17
2022-08-24T22:19:38.190Z,2.80
2022-08-24T22:22:05.168Z,3.20
2022-08-24T22:24:31.617Z,2.70
2022-08-24T22:26:58.111Z,2.80
2022-08-24T22:29:24.556Z,3.27
2022-08-24T22:31:51.820Z,2.60
2022-08-24T22:34:19.726Z,3.00
2022-08-24T22:36:48.244Z,2.80
2022-08-24T22:39:14.754Z,2.70
2022-08-24T22:41:41.487Z,3.10
2022-08-24T22:44:21.122Z,3.13
2022-08-24T22:46:56.218Z,3.00
2022-08-24T22:49:30.069Z,3.20
2022-08-24T22:51:56.772Z,2.73
2022-08-24T22:54:24.063Z,3.20
2022-08-24T22:56:53.348Z,2.90
2022-08-24T22:59:23.013Z,3.07
2022-08-24T23:01:51.522Z,3.03
2022-08-24T23:04:26.069Z,2.80
2022-08-24T23:06:52.714Z,3.43
2022-08-24T23:09:19.405Z,3.20
2022-08-24T23:11:46.290Z,3.47
2022-08-24T23:14:14.012Z,2.97
2022-08-24T23:16:44.873Z,3.20
2022-08-24T23:19:30.331Z,2.43
2022-08-24T23:21:56.735Z,2.87
2022-08-24T23:24:23.216Z,3.07
2022-08-24T23:26:49.808Z,3.10
2022-08-24T23:29:17.000Z,2.83
2022-08-24T23:31:44.367Z,2.90
2022-08-24T23:34:11.068Z,2.93
2022-08-24T23:36:38.392Z,2.70
2022-08-24T23:39:07.736Z,2.60
2022-08-24T23:41:36.533Z,2.70
2022-08-24T23:44:05.832Z,2.90
2022-08-24T23:46:32.337Z,2.80
2022-08-24T23:49:03.300Z,3.60
2022-08-24T23:51:30.562Z,2.53
2022-08-24T23:53:57.129Z,3.10
2022-08-24T23:56:25.969Z,3.30
2022-08-24T23:58:53.189Z,2.90
